Time;durP1;ratioP1;P1;durP2;ratioP2;P2;SDS_P1;SDS_P2;PMS_P1;PMS_P2;Temp;Humidity;BMP_temperature;BMP_pressure;BME280_temperature;BME280_humidity;BME280_pressure;Samples;Min_cycle;Max_cycle;Signal;HPM_P1;HPM_P2
2022/06/26 00:01:48;;;;;;;15.65;9.15;;;;;;;18.69;75.68;101998.44;5057607;28;20104;-66
2022/06/26 00:04:14;;;;;;;17.73;10.15;;;;;;;18.42;76.02;101958.56;5059929;28;20487;-68
2022/06/26 00:06:42;;;;;;;15.40;9.98;;;;;;;18.29;76.17;101947.59;5059553;28;20555;-69
2022/06/26 00:09:33;;;;;;;19.30;9.52;;;;;;;18.61;76.49;102003.91;5060894;28;20051;-67
2022/06/26 00:11:58;;;;;;;16.50;10.32;;;;;;;18.49;76.19;101997.28;5062752;28;20420;-67
2022/06/26 00:14:25;;;;;;;22.42;9.95;;;;;;;18.44;76.12;101997.81;5058238;28;20509;-72
2022/06/26 00:16:51;;;;;;;17.48;9.18;;;;;;;18.49;76.15;102002.66;5056252;28;20369;-72
2022/06/26 00:19:16;;;;;;;15.95;10.05;;;;;;;18.51;76.41;102012.28;5056586;28;20040;-68
2022/06/26 00:21:42;;;;;;;17.23;9.45;;;;;;;18.46;76.22;102005.72;5057521;28;20028;-69
2022/06/26 00:24:07;;;;;;;18.20;9.55;;;;;;;18.50;76.36;102012.44;5056363;28;20218;-66
2022/06/26 00:26:33;;;;;;;16.92;9.88;;;;;;;18.30;76.29;101981.63;5055369;28;20041;-67
2022/06/26 00:28:59;;;;;;;15.43;9.98;;;;;;;18.04;76.12;101941.63;5055325;28;20127;-68
2022/06/26 00:31:24;;;;;;;14.52;9.23;;;;;;;18.42;76.29;102010.66;5053877;28;20033;-68
2022/06/26 00:33:50;;;;;;;16.65;9.23;;;;;;;18.07;76.40;101944.78;5055036;28;20061;-70
2022/06/26 00:36:15;;;;;;;14.93;8.98;;;;;;;18.41;76.16;102002.75;5054954;28;20033;-70
2022/06/26 00:38:41;;;;;;;13.48;9.93;;;;;;;18.39;77.06;102007.50;5053748;28;20497;-71
2022/06/26 00:41:06;;;;;;;31.88;11.35;;;;;;;18.39;77.07;102015.59;5055268;28;20483;-71
2022/06/26 00:43:32;;;;;;;17.25;9.30;;;;;;;18.40;76.98;102014.56;5054880;28;20556;-70
2022/06/26 00:45:57;;;;;;;16.77;10.93;;;;;;;18.40;77.11;102014.56;5055101;28;20037;-69
2022/06/26 00:48:23;;;;;;;16.08;9.43;;;;;;;18.32;77.18;102010.09;5054717;28;20082;-72
2022/06/26 00:50:50;;;;;;;16.95;10.30;;;;;;;18.37;77.34;102021.16;5054804;28;20083;-67
2022/06/26 00:53:15;;;;;;;14.52;9.32;;;;;;;18.35;76.83;102017.81;5054646;28;20458;-67
2022/06/26 00:55:41;;;;;;;13.23;9.80;;;;;;;18.42;76.68;102026.84;5054506;28;20040;-72
2022/06/26 00:58:07;;;;;;;14.52;10.15;;;;;;;18.43;77.01;102030.38;5052907;28;20090;-70
2022/06/26 01:00:32;;;;;;;13.50;10.35;;;;;;;18.44;76.91;102032.06;5053650;28;20037;-70
2022/06/26 01:02:58;;;;;;;15.23;10.90;;;;;;;18.39;76.85;102018.28;5054381;28;20090;-73
2022/06/26 01:05:24;;;;;;;19.83;11.95;;;;;;;18.38;77.08;102025.53;5052840;28;20049;-68
2022/06/26 01:07:49;;;;;;;16.88;9.68;;;;;;;18.38;76.92;102022.84;5053410;28;20040;-68
2022/06/26 01:10:15;;;;;;;22.15;11.50;;;;;;;18.43;76.56;102036.63;5053497;28;20562;-65
2022/06/26 01:12:40;;;;;;;15.95;9.50;;;;;;;18.21;77.04;101997.03;5053279;28;20559;-72
2022/06/26 01:15:08;;;;;;;15.50;10.15;;;;;;;18.44;77.25;102037.44;5054710;28;20029;-70
2022/06/26 01:17:34;;;;;;;13.68;9.90;;;;;;;18.43;76.92;102035.78;5054640;28;20036;-71
2022/06/26 01:20:00;;;;;;;16.70;10.18;;;;;;;18.44;77.08;102038.28;5053923;28;20461;-66
2022/06/26 01:22:27;;;;;;;14.55;8.88;;;;;;;18.46;77.30;102043.50;5054145;28;20044;-69
2022/06/26 01:24:52;;;;;;;17.67;10.07;;;;;;;18.46;77.32;102038.94;5054839;28;20037;-69
2022/06/26 01:27:18;;;;;;;11.85;10.32;;;;;;;18.44;77.09;102032.06;5054288;28;20405;-68
2022/06/26 01:30:10;;;;;;;13.45;9.77;;;;;;;18.44;77.26;102037.44;5054358;28;20047;-74
2022/06/26 01:32:35;;;;;;;15.27;10.43;;;;;;;18.49;77.28;102043.13;5053657;28;20076;-71
2022/06/26 01:35:01;;;;;;;17.55;10.73;;;;;;;18.44;77.27;102034.75;5036290;28;20129;-68
2022/06/26 01:37:27;;;;;;;13.10;9.57;;;;;;;18.43;77.77;102030.38;5053764;28;20037;-69
2022/06/26 01:39:53;;;;;;;12.05;10.32;;;;;;;18.51;77.49;102039.25;5053844;28;20069;-70
2022/06/26 01:42:18;;;;;;;14.27;9.60;;;;;;;18.55;76.94;102042.41;5054112;28;20064;-69
2022/06/26 01:44:44;;;;;;;13.43;10.10;;;;;;;18.56;77.13;102041.41;5054188;28;20484;-70
2022/06/26 01:47:09;;;;;;;12.38;10.20;;;;;;;18.57;77.20;102040.38;5052700;28;20037;-70
2022/06/26 01:49:35;;;;;;;17.85;10.52;;;;;;;18.64;77.35;102045.91;5053904;28;20029;-71
2022/06/26 01:52:00;;;;;;;14.75;10.88;;;;;;;18.56;77.10;102030.59;5053450;28;20037;-69
2022/06/26 01:54:26;;;;;;;18.25;10.35;;;;;;;18.54;77.46;102029.94;5053703;28;20032;-68
2022/06/26 01:56:51;;;;;;;16.02;10.93;;;;;;;18.61;77.60;102038.13;5055443;28;20511;-68
2022/06/26 01:59:17;;;;;;;24.13;10.43;;;;;;;18.68;77.23;102055.28;5054051;28;20045;-71
2022/06/26 02:01:43;;;;;;;15.85;9.65;;;;;;;18.70;77.72;102059.47;5052070;28;20029;-71
2022/06/26 02:04:08;;;;;;;14.50;9.05;;;;;;;18.71;77.69;102055.75;5053548;28;20078;-69
2022/06/26 02:06:34;;;;;;;12.27;9.05;;;;;;;18.63;78.04;102041.53;5053263;28;20513;-69
2022/06/26 02:09:01;;;;;;;16.38;9.90;;;;;;;18.73;78.02;102059.09;5052135;28;20049;-68
2022/06/26 02:14:11;;;;;;;15.00;9.48;;;;;;;18.76;77.65;102052.50;5052067;28;20044;-69
2022/06/26 02:16:37;;;;;;;14.38;9.23;;;;;;;18.83;77.40;102064.25;5051750;28;20045;-69
2022/06/26 02:19:02;;;;;;;12.65;9.88;;;;;;;18.82;77.55;102063.41;5053807;28;20033;-67
2022/06/26 02:21:28;;;;;;;14.18;9.18;;;;;;;18.89;77.75;102066.22;5051463;28;20128;-71
2022/06/26 02:23:55;;;;;;;15.43;8.75;;;;;;;18.91;77.40;102066.03;5052713;28;20616;-66
2022/06/26 02:26:22;;;;;;;22.73;10.05;;;;;;;18.91;77.98;102060.63;5052791;28;20095;-67
2022/06/26 02:28:48;;;;;;;11.40;8.50;;;;;;;18.94;77.47;102060.25;5053696;28;20405;-65
2022/06/26 02:31:40;;;;;;;14.60;8.27;;;;;;;19.03;77.55;102073.44;5065168;28;20504;-65
2022/06/26 02:34:05;;;;;;;14.80;10.02;;;;;;;19.06;77.47;102070.38;5063595;28;19920;-65
2022/06/26 02:36:31;;;;;;;13.02;8.63;;;;;;;18.88;77.67;102035.69;5058062;28;20036;-67
2022/06/26 02:38:56;;;;;;;17.63;8.55;;;;;;;19.14;77.57;102069.47;5052780;28;20052;-67
2022/06/26 02:41:22;;;;;;;12.57;8.75;;;;;;;19.10;77.44;102050.09;5052745;28;20094;-69
2022/06/26 02:43:48;;;;;;;15.57;10.82;;;;;;;19.24;77.89;102069.16;5052654;28;20475;-71
2022/06/26 02:46:13;;;;;;;14.38;8.27;;;;;;;19.27;77.73;102064.22;5052097;28;20037;-68
2022/06/26 02:48:39;;;;;;;13.40;8.48;;;;;;;19.34;76.58;102077.81;5052817;28;20481;-71
2022/06/26 02:51:04;;;;;;;11.10;9.15;;;;;;;19.40;76.50;102066.28;5061061;28;20033;-65
2022/06/26 02:53:30;;;;;;;12.65;8.95;;;;;;;20.15;74.82;102070.41;5064110;28;20063;-67
2022/06/26 02:55:55;;;;;;;14.20;8.93;;;;;;;22.10;68.30;102055.69;5062799;28;20036;-69
2022/06/26 02:58:21;;;;;;;15.20;8.60;;;;;;;24.30;60.84;102078.22;5055566;28;20037;-69
2022/06/26 03:00:47;;;;;;;12.35;8.05;;;;;;;25.85;55.65;102077.97;5052472;28;20048;-69
2022/06/26 03:03:12;;;;;;;13.70;7.93;;;;;;;26.74;52.41;102060.56;5052116;28;20542;-69
2022/06/26 03:05:38;;;;;;;15.07;8.00;;;;;;;27.71;49.30;102079.03;5052085;28;20049;-69
2022/06/26 03:08:29;;;;;;;10.85;7.63;;;;;;;28.44;47.25;102086.38;5052408;28;20060;-70
2022/06/26 03:10:54;;;;;;;10.90;7.10;;;;;;;28.86;45.90;102067.53;5052394;28;20049;-70
2022/06/26 03:13:20;;;;;;;10.45;7.47;;;;;;;29.28;44.33;102069.75;5052478;28;20041;-69
2022/06/26 03:15:45;;;;;;;9.55;7.03;;;;;;;29.46;43.67;102054.88;5052750;28;20086;-70
2022/06/26 03:18:11;;;;;;;10.85;7.35;;;;;;;29.79;43.04;102075.84;5052175;28;20028;-68
2022/06/26 03:20:39;;;;;;;9.65;6.88;;;;;;;29.99;42.98;102061.44;5052483;28;20123;-71
2022/06/26 03:23:04;;;;;;;13.25;7.53;;;;;;;30.37;41.98;102066.75;5051223;28;20059;-69
2022/06/26 03:25:30;;;;;;;11.40;6.57;;;;;;;30.58;41.35;102073.22;5054337;28;20488;-70
2022/06/26 03:27:56;;;;;;;10.20;7.43;;;;;;;30.68;40.99;102075.25;5056400;28;20079;-67
2022/06/26 03:30:21;;;;;;;10.07;6.55;;;;;;;30.67;41.26;102071.66;5056293;28;20495;-69
2022/06/26 03:32:47;;;;;;;10.85;7.28;;;;;;;30.86;41.35;102069.28;5056195;28;20143;-68
2022/06/26 03:35:13;;;;;;;13.38;7.07;;;;;;;31.35;40.25;102085.50;5055993;28;20071;-71
2022/06/26 03:37:38;;;;;;;10.32;7.78;;;;;;;31.70;40.25;102090.28;5055882;28;20451;-69
2022/06/26 03:40:04;;;;;;;12.60;7.45;;;;;;;31.78;39.45;102095.28;5056146;28;20037;-72
2022/06/26 03:42:30;;;;;;;16.63;7.85;;;;;;;31.80;39.32;102072.97;5056241;28;20032;-70
2022/06/26 03:44:55;;;;;;;12.95;7.30;;;;;;;31.70;39.49;102080.09;5056038;28;20036;-68
2022/06/26 03:47:21;;;;;;;10.55;7.65;;;;;;;31.88;39.24;102087.03;5055932;28;20065;-71
2022/06/26 03:49:47;;;;;;;11.82;7.47;;;;;;;32.00;39.08;102054.53;5057474;28;20044;-68
2022/06/26 03:52:12;;;;;;;11.38;7.90;;;;;;;32.15;38.75;102061.97;5057838;28;20041;-70
2022/06/26 03:54:38;;;;;;;13.35;7.20;;;;;;;32.32;38.18;102070.81;5059341;28;20036;-69
2022/06/26 03:57:04;;;;;;;8.88;6.95;;;;;;;32.59;38.37;102081.53;5056001;28;20048;-68
2022/06/26 03:59:29;;;;;;;8.60;6.85;;;;;;;32.77;38.00;102082.88;5056138;28;20037;-67
2022/06/26 04:01:55;;;;;;;10.75;7.57;;;;;;;32.76;37.12;102074.88;5055582;28;20047;-70
2022/06/26 04:04:21;;;;;;;14.43;7.47;;;;;;;32.72;37.64;102093.94;5055708;28;20060;-68
2022/06/26 04:06:46;;;;;;;9.45;6.80;;;;;;;32.81;37.37;102088.69;5055867;28;20053;-68
2022/06/26 04:09:12;;;;;;;13.50;6.75;;;;;;;32.92;36.75;102069.06;5055647;28;20041;-69
2022/06/26 04:11:38;;;;;;;9.13;6.88;;;;;;;33.14;36.35;102082.50;5055479;28;20408;-71
2022/06/26 04:14:03;;;;;;;7.75;5.32;;;;;;;33.18;35.75;102082.75;5054400;28;20542;-70
2022/06/26 04:16:29;;;;;;;7.97;4.85;;;;;;;33.26;34.05;102090.47;5055372;28;20128;-70
2022/06/26 04:18:54;;;;;;;6.88;4.90;;;;;;;33.34;34.39;102086.31;5054081;28;20123;-68
2022/06/26 04:21:20;;;;;;;10.65;5.43;;;;;;;33.28;33.63;102077.22;5055200;28;20036;-67
2022/06/26 04:23:45;;;;;;;6.00;5.32;;;;;;;33.33;33.41;102087.44;5055149;28;20059;-69
2022/06/26 04:26:11;;;;;;;7.97;5.20;;;;;;;32.90;33.56;102076.78;5053863;28;20461;-68
2022/06/26 04:28:36;;;;;;;6.10;4.35;;;;;;;32.81;33.47;102081.25;5054952;28;20033;-70
2022/06/26 04:31:02;;;;;;;5.25;4.13;;;;;;;33.03;33.02;102074.56;5053763;28;20025;-69
2022/06/26 04:33:28;;;;;;;4.90;4.38;;;;;;;32.99;32.39;102084.50;5053519;28;20507;-70
2022/06/26 04:35:53;;;;;;;4.88;3.53;;;;;;;32.44;33.03;102050.41;5054676;28;20090;-68
2022/06/26 04:38:19;;;;;;;5.78;4.00;;;;;;;32.52;33.01;102091.19;5053765;28;20047;-71
2022/06/26 04:40:44;;;;;;;4.00;3.55;;;;;;;32.21;33.02;102029.72;5053696;28;20033;-70
2022/06/26 04:43:10;;;;;;;5.72;4.40;;;;;;;32.75;32.60;102085.09;5054990;28;20037;-66
2022/06/26 04:45:35;;;;;;;4.93;4.20;;;;;;;32.70;31.95;102078.75;5054954;28;20116;-68
2022/06/26 04:48:01;;;;;;;5.40;4.00;;;;;;;32.49;32.71;102053.16;5054758;28;20037;-69
2022/06/26 04:50:26;;;;;;;4.47;3.47;;;;;;;32.77;32.16;102087.56;5054795;28;20030;-71
2022/06/26 04:52:52;;;;;;;6.45;3.83;;;;;;;32.58;32.10;102084.56;5054511;28;20124;-67
2022/06/26 04:55:18;;;;;;;7.13;4.50;;;;;;;32.63;32.05;102081.78;5054646;28;20171;-70
2022/06/26 04:57:44;;;;;;;6.28;4.15;;;;;;;32.73;32.09;102092.00;5054850;28;20393;-67
2022/06/26 05:00:11;;;;;;;4.50;4.00;;;;;;;32.54;31.59;102067.75;5054689;28;20048;-69
2022/06/26 05:02:37;;;;;;;6.75;4.50;;;;;;;32.88;31.73;102090.03;5054653;28;20035;-67
2022/06/26 05:05:04;;;;;;;5.05;4.47;;;;;;;32.92;31.91;102074.56;5054413;28;20484;-67
2022/06/26 05:07:32;;;;;;;6.18;3.85;;;;;;;32.75;31.89;102085.09;5054750;28;20049;-68
2022/06/26 05:09:58;;;;;;;4.60;3.38;;;;;;;32.39;32.88;102072.47;5054585;28;20130;-69
2022/06/26 05:12:24;;;;;;;5.10;4.07;;;;;;;32.35;33.07;102095.06;5053915;28;20381;-69
2022/06/26 05:14:50;;;;;;;10.68;4.97;;;;;;;32.25;33.29;102086.81;5054106;28;20071;-71
2022/06/26 05:17:15;;;;;;;6.55;3.63;;;;;;;31.99;33.07;102088.69;5052871;28;20060;-67
2022/06/26 05:19:41;;;;;;;4.38;3.53;;;;;;;31.59;34.15;102075.66;5054222;28;20040;-70
2022/06/26 05:22:07;;;;;;;4.32;3.92;;;;;;;31.30;34.98;102091.81;5054693;28;20039;-70
2022/06/26 05:24:32;;;;;;;6.78;4.00;;;;;;;31.03;35.67;102091.13;5054554;28;20032;-67
2022/06/26 05:26:58;;;;;;;5.15;3.72;;;;;;;30.50;35.93;102071.78;5053334;28;20037;-68
2022/06/26 05:29:25;;;;;;;6.00;4.10;;;;;;;29.36;38.01;102068.47;5054151;28;20037;-68
2022/06/26 05:31:51;;;;;;;4.20;3.80;;;;;;;28.50;40.76;102087.25;5053891;28;20032;-67
2022/06/26 05:34:18;;;;;;;5.93;4.57;;;;;;;27.63;42.21;102079.41;5054083;28;20052;-67
2022/06/26 05:36:43;;;;;;;5.15;3.75;;;;;;;26.31;44.10;101984.41;5054047;28;20444;-73
2022/06/26 05:39:09;;;;;;;11.52;5.15;;;;;;;26.47;45.14;102067.56;5054189;28;20033;-69
2022/06/26 05:41:35;;;;;;;5.30;3.90;;;;;;;26.31;46.25;102092.78;5052945;28;20488;-68
2022/06/26 05:44:00;;;;;;;6.93;4.22;;;;;;;26.08;46.37;102082.69;5053774;28;20040;-65
2022/06/26 05:46:26;;;;;;;5.35;4.43;;;;;;;26.04;46.99;102078.75;5053605;28;20139;-67
2022/06/26 05:48:52;;;;;;;7.60;4.70;;;;;;;26.02;47.66;102094.50;5053229;28;20460;-67
2022/06/26 05:51:17;;;;;;;6.13;5.32;;;;;;;25.93;48.08;102083.09;5053473;28;20045;-66
2022/06/26 05:53:43;;;;;;;6.95;4.30;;;;;;;25.88;49.15;102072.06;5053693;28;20497;-66
2022/06/26 05:56:08;;;;;;;7.38;4.10;;;;;;;25.89;48.05;102071.00;5052333;28;20029;-68
2022/06/26 05:58:34;;;;;;;7.68;4.53;;;;;;;25.94;48.34;102073.84;5052200;28;20052;-72
2022/06/26 06:00:59;;;;;;;8.00;4.47;;;;;;;25.97;48.69;102087.03;5053963;28;20037;-67
2022/06/26 06:03:25;;;;;;;7.00;4.63;;;;;;;26.00;49.86;102074.81;5051942;28;20063;-71
2022/06/26 06:05:52;;;;;;;5.00;4.30;;;;;;;25.90;48.55;102070.75;5052353;28;20056;-69
2022/06/26 06:08:17;;;;;;;6.18;4.00;;;;;;;25.78;48.98;102052.69;5035147;28;20063;-70
2022/06/26 06:10:43;;;;;;;7.43;3.90;;;;;;;25.78;49.15;102069.06;5053937;28;20443;-69
2022/06/26 06:13:09;;;;;;;5.35;4.43;;;;;;;25.75;49.16;102069.53;5053423;28;20080;-67
2022/06/26 06:15:34;;;;;;;5.55;4.25;;;;;;;25.81;50.45;102077.63;5053816;28;20048;-70
2022/06/26 06:18:00;;;;;;;6.63;3.92;;;;;;;25.84;49.43;102076.31;5052269;28;20167;-71
2022/06/26 06:20:26;;;;;;;6.32;4.13;;;;;;;25.74;50.38;102068.69;5051495;28;20078;-70
2022/06/26 06:23:10;;;;;;;4.88;4.35;;;;;;;25.77;50.02;102072.88;5035310;28;20032;-68
2022/06/26 06:25:36;;;;;;;7.45;3.50;;;;;;;25.73;50.25;102064.28;5053052;28;20036;-69
2022/06/26 06:28:02;;;;;;;8.77;3.90;;;;;;;25.82;50.33;102076.56;5051256;28;20052;-70
2022/06/26 06:30:27;;;;;;;5.63;3.72;;;;;;;25.71;50.28;102055.50;5052673;28;20159;-68
2022/06/26 06:32:54;;;;;;;5.10;3.70;;;;;;;25.79;50.44;102068.00;5052350;28;20066;-67
2022/06/26 06:35:20;;;;;;;9.10;4.05;;;;;;;25.72;49.61;102067.25;5051634;28;20049;-70
2022/06/26 06:37:46;;;;;;;4.47;4.00;;;;;;;25.73;51.11;102068.91;5052460;28;20110;-66
2022/06/26 06:40:13;;;;;;;6.60;4.25;;;;;;;25.78;50.81;102063.59;5052861;28;20493;-68
2022/06/26 06:42:41;;;;;;;5.20;3.90;;;;;;;25.81;50.25;102071.31;5053176;28;20033;-68
2022/06/26 06:45:08;;;;;;;5.55;3.88;;;;;;;25.90;49.97;102076.22;5052505;28;20091;-66
2022/06/26 06:47:33;;;;;;;11.95;4.72;;;;;;;25.84;49.72;102060.78;5062444;28;20107;-67
2022/06/26 06:49:59;;;;;;;6.78;3.97;;;;;;;25.73;49.01;102045.19;5062485;28;20491;-65
2022/06/26 06:52:25;;;;;;;6.30;3.72;;;;;;;25.79;49.99;102057.09;5062025;28;20132;-67
2022/06/26 06:54:50;;;;;;;8.95;5.40;;;;;;;25.82;49.30;102064.81;5051415;28;20037;-72
2022/06/26 06:57:16;;;;;;;4.13;3.38;;;;;;;25.85;49.65;102067.91;5052562;28;20033;-71
2022/06/26 06:59:41;;;;;;;5.80;4.35;;;;;;;25.83;49.14;102069.19;5051651;28;20560;-71
2022/06/26 07:02:07;;;;;;;5.88;3.80;;;;;;;25.90;48.96;102078.94;5052761;28;20037;-69
2022/06/26 07:04:37;;;;;;;4.13;3.72;;;;;;;25.91;50.19;102079.78;5050975;28;20511;-71
2022/06/26 07:07:07;;;;;;;8.32;4.00;;;;;;;25.91;49.84;102077.03;5060244;28;20033;-65
2022/06/26 07:09:32;;;;;;;6.15;4.03;;;;;;;25.87;49.89;102073.94;5062250;28;20043;-66
2022/06/26 07:11:58;;;;;;;9.25;4.72;;;;;;;25.97;49.35;102075.28;5064041;28;20075;-66
2022/06/26 07:14:24;;;;;;;5.95;3.88;;;;;;;25.92;49.47;102078.72;5054703;28;20037;-66
2022/06/26 07:16:50;;;;;;;6.45;4.30;;;;;;;25.95;49.26;102075.50;5052395;28;20427;-69
2022/06/26 07:19:16;;;;;;;4.38;3.65;;;;;;;26.01;49.63;102077.31;5052386;28;20037;-68
2022/06/26 07:21:43;;;;;;;8.05;4.25;;;;;;;26.06;49.41;102091.09;5050812;28;20500;-68
2022/06/26 07:24:10;;;;;;;4.68;4.22;;;;;;;26.02;49.38;102084.47;5050926;28;20451;-69
2022/06/26 07:26:37;;;;;;;6.53;3.67;;;;;;;26.01;49.52;102081.94;5052045;28;20412;-68
2022/06/26 07:29:02;;;;;;;6.15;3.65;;;;;;;25.97;50.61;102076.09;5051046;28;20036;-66
2022/06/26 07:31:28;;;;;;;9.13;5.03;;;;;;;26.07;50.57;102081.84;5052251;28;20511;-68
2022/06/26 07:37:03;;;;;;;7.65;4.88;;;;;;;26.01;51.00;102071.84;5052766;28;20547;-67
2022/06/26 07:39:29;;;;;;;8.00;4.00;;;;;;;26.11;50.92;102091.22;5052566;28;20070;-70
2022/06/26 07:41:54;;;;;;;8.95;5.60;;;;;;;26.04;50.54;102081.50;5050684;28;20043;-69
2022/06/26 07:44:20;;;;;;;14.15;7.38;;;;;;;25.94;51.21;102071.13;5052146;28;20119;-67
2022/06/26 07:46:45;;;;;;;7.45;4.68;;;;;;;26.08;50.97;102094.44;5051796;28;20128;-68
2022/06/26 07:49:12;;;;;;;6.53;4.38;;;;;;;26.03;51.88;102086.13;5050558;28;20131;-68
2022/06/26 07:51:38;;;;;;;7.25;4.05;;;;;;;25.93;51.13;102078.47;5051575;28;20044;-68
2022/06/26 07:54:04;;;;;;;8.05;4.15;;;;;;;26.04;52.13;102097.88;5054275;28;20047;-67
2022/06/26 07:56:29;;;;;;;9.98;5.57;;;;;;;25.86;52.11;102063.28;5062239;28;20094;-69
2022/06/26 07:58:56;;;;;;;7.80;4.43;;;;;;;26.01;51.57;102073.75;5061005;28;20063;-68
2022/06/26 08:01:21;;;;;;;8.23;4.38;;;;;;;26.10;51.60;102084.09;5061220;28;20404;-69
2022/06/26 08:03:47;;;;;;;10.68;5.20;;;;;;;26.13;51.20;102091.84;5044158;28;20029;-68
2022/06/26 08:06:14;;;;;;;8.60;5.18;;;;;;;26.05;52.39;102081.25;5059305;28;20092;-66
2022/06/26 08:08:40;;;;;;;6.90;4.30;;;;;;;26.05;52.70;102069.50;5061008;28;20136;-68
2022/06/26 08:11:05;;;;;;;5.93;4.63;;;;;;;26.21;52.69;102083.28;5061684;28;20040;-67
2022/06/26 08:13:31;;;;;;;8.75;5.00;;;;;;;26.19;51.70;102082.69;5060167;28;20045;-67
2022/06/26 08:15:58;;;;;;;7.20;3.85;;;;;;;26.14;52.34;102076.28;5060584;28;20033;-69
2022/06/26 08:18:23;;;;;;;4.50;3.80;;;;;;;25.99;51.85;102046.69;5062043;28;20041;-68
2022/06/26 08:20:49;;;;;;;7.07;5.15;;;;;;;26.11;51.34;102063.94;5061707;28;20040;-65
2022/06/26 08:23:14;;;;;;;9.85;4.38;;;;;;;26.08;51.40;102058.94;5063539;28;20043;-66
2022/06/26 08:25:40;;;;;;;6.15;4.43;;;;;;;25.96;51.72;102033.50;5062717;28;20036;-68
2022/06/26 08:28:06;;;;;;;9.40;5.00;;;;;;;26.32;51.52;102084.41;5059185;28;20083;-67
2022/06/26 08:30:32;;;;;;;7.10;4.50;;;;;;;26.36;51.57;102062.94;5055291;28;20033;-71
2022/06/26 08:32:58;;;;;;;9.13;5.18;;;;;;;26.37;50.96;102064.59;5056348;28;20040;-67
2022/06/26 08:35:26;;;;;;;5.90;4.32;;;;;;;26.42;51.62;102072.91;5056506;28;20098;-70
2022/06/26 08:38:17;;;;;;;6.28;4.30;;;;;;;26.47;51.12;102075.75;5057240;28;20095;-71
2022/06/26 08:40:44;;;;;;;8.55;5.25;;;;;;;26.41;50.55;102061.16;5054397;28;20033;-69
2022/06/26 08:43:10;;;;;;;13.27;5.07;;;;;;;26.57;51.12;102076.00;5055062;28;20033;-66
2022/06/26 08:45:36;;;;;;;9.43;4.53;;;;;;;26.46;51.08;102057.72;5054855;28;20033;-69
2022/06/26 08:48:02;;;;;;;10.98;4.88;;;;;;;26.02;50.87;101975.25;5053130;28;20031;-69
2022/06/26 08:50:30;;;;;;;6.25;4.90;;;;;;;26.62;50.80;102073.41;5054848;28;20028;-68
2022/06/26 08:52:59;;;;;;;10.95;5.63;;;;;;;26.67;51.29;102073.50;5054720;28;20072;-65
2022/06/26 08:55:25;;;;;;;11.10;5.25;;;;;;;26.07;51.17;101967.19;5053670;28;20207;-69
2022/06/26 08:57:51;;;;;;;16.75;5.32;;;;;;;26.79;50.98;102077.06;5054783;28;20036;-71
2022/06/26 09:00:17;;;;;;;9.40;5.53;;;;;;;26.72;50.98;102067.34;5054678;28;20043;-68
2022/06/26 09:02:43;;;;;;;9.15;4.80;;;;;;;26.88;51.73;102077.53;5054569;28;20500;-67
2022/06/26 09:05:11;;;;;;;10.00;5.03;;;;;;;26.89;51.09;102073.75;5053358;28;20470;-67
2022/06/26 09:08:01;;;;;;;8.38;4.95;;;;;;;26.85;50.80;102062.44;5053847;28;20064;-73
2022/06/26 09:10:28;;;;;;;11.32;6.20;;;;;;;26.92;49.91;102072.44;5053133;28;20115;-68
2022/06/26 09:12:58;;;;;;;9.43;5.03;;;;;;;26.79;51.36;102033.34;5052813;28;20044;-70
2022/06/26 09:15:25;;;;;;;7.00;4.88;;;;;;;27.00;50.89;102067.44;5055001;28;20084;-71
2022/06/26 09:18:01;;;;;;;8.88;5.82;;;;;;;26.98;50.72;102057.78;5053753;28;20085;-69
2022/06/26 09:20:31;;;;;;;5.95;4.78;;;;;;;27.04;50.69;102073.25;5053631;28;20044;-70
2022/06/26 09:22:59;;;;;;;8.75;5.45;;;;;;;27.10;50.48;102058.63;5053935;28;20061;-72
2022/06/26 09:25:39;;;;;;;9.60;5.00;;;;;;;27.11;50.17;102057.56;5036593;28;20037;-71
2022/06/26 09:28:14;;;;;;;8.40;5.45;;;;;;;27.17;50.30;102076.56;5054484;28;20048;-69
2022/06/26 09:30:45;;;;;;;8.93;5.70;;;;;;;27.20;51.00;102077.16;5052922;28;20064;-65
2022/06/26 09:33:11;;;;;;;7.82;5.40;;;;;;;27.17;51.09;102064.78;5054065;28;20400;-70
2022/06/26 09:35:37;;;;;;;7.32;5.20;;;;;;;27.20;49.91;102075.25;5054120;28;20540;-67
2022/06/26 09:38:04;;;;;;;12.75;5.38;;;;;;;27.14;49.68;102054.31;5053870;28;20048;-70
2022/06/26 09:40:29;;;;;;;8.43;4.35;;;;;;;27.23;47.37;102063.84;5054246;28;20040;-71
2022/06/26 09:42:56;;;;;;;6.88;4.50;;;;;;;27.28;46.99;102068.56;5052654;28;20032;-72
2022/06/26 09:45:21;;;;;;;5.70;4.85;;;;;;;27.27;47.57;102062.28;5052355;28;20140;-69
2022/06/26 09:47:47;;;;;;;13.00;5.10;;;;;;;27.04;47.92;102021.31;5053836;28;20117;-69
2022/06/26 09:50:13;;;;;;;8.48;5.57;;;;;;;27.31;48.71;102057.97;5052343;28;20041;-66
2022/06/26 09:52:39;;;;;;;8.65;4.78;;;;;;;27.27;47.76;102048.59;5052586;28;20033;-67
2022/06/26 09:55:07;;;;;;;10.55;5.07;;;;;;;27.39;47.88;102063.06;5053900;28;20686;-70
2022/06/26 09:57:36;;;;;;;7.30;5.07;;;;;;;27.44;46.41;102076.84;5036294;28;20377;-69
2022/06/26 10:00:06;;;;;;;10.65;3.92;;;;;;;27.28;44.58;102043.97;5053961;28;20068;-72
2022/06/26 10:08:05;;;;;;;;;;;;;;;27.50;42.86;102066.00;5064834;28;20063;-66
2022/06/26 10:10:33;;;;;;;8.15;3.72;;;;;;;27.41;40.59;102063.63;5064081;28;19923;-67
2022/06/26 10:13:09;;;;;;;7.65;3.28;;;;;;;27.47;41.31;102061.88;5060728;28;20037;-66
2022/06/26 10:15:47;;;;;;;7.18;4.07;;;;;;;27.39;41.96;102052.13;5055879;28;20489;-69
2022/06/26 10:18:20;;;;;;;;;;;;;;;27.54;41.97;102069.91;5053748;28;20033;-68
2022/06/26 10:20:48;;;;;;;6.00;3.33;;;;;;;27.35;40.78;102036.44;5052003;28;19916;-68
2022/06/26 10:23:33;;;;;;;8.27;3.78;;;;;;;27.43;40.05;102050.53;5052080;28;20489;-72
2022/06/26 10:26:17;;;;;;;4.28;3.05;;;;;;;27.57;40.24;102053.84;5052703;28;20051;-68
2022/06/26 10:29:03;;;;;;;8.35;4.07;;;;;;;27.64;40.43;102057.28;5053417;28;20043;-71
2022/06/26 10:31:47;;;;;;;8.70;3.45;;;;;;;27.57;40.42;102047.53;5053273;28;20033;-71
2022/06/26 10:34:23;;;;;;;8.98;4.20;;;;;;;27.64;41.56;102059.19;5053033;28;20125;-69
2022/06/26 10:37:01;;;;;;;7.13;3.28;;;;;;;27.67;40.66;102054.06;5052974;28;20086;-68
2022/06/26 10:39:38;;;;;;;8.63;3.63;;;;;;;27.68;40.33;102052.97;5052988;28;20040;-70
2022/06/26 10:45:09;;;;;;;6.95;3.38;;;;;;;27.73;40.42;102057.72;5053283;28;20088;-71
2022/06/26 10:47:44;;;;;;;5.00;3.78;;;;;;;27.84;40.27;102056.84;5053779;28;20041;-72
2022/06/26 10:50:28;;;;;;;5.70;2.80;;;;;;;27.96;40.32;102046.63;5052295;28;20033;-67
2022/06/26 10:53:20;;;;;;;6.63;3.13;;;;;;;28.00;38.33;102056.00;5063548;28;20090;-66
2022/06/26 10:56:06;;;;;;;4.55;2.70;;;;;;;28.03;38.15;102052.78;5063860;28;20036;-65
2022/06/26 10:58:38;;;;;;;5.32;2.85;;;;;;;28.00;37.67;102047.78;5054527;28;20037;-65
2022/06/26 11:01:06;;;;;;;6.70;2.67;;;;;;;27.72;36.80;101990.34;5051472;28;20142;-71
2022/06/26 11:03:33;;;;;;;8.02;2.85;;;;;;;28.00;36.81;102036.84;5052385;28;20497;-70
2022/06/26 11:06:04;;;;;;;3.38;2.35;;;;;;;28.10;36.35;102044.41;5052975;28;20053;-69
2022/06/26 11:08:32;;;;;;;7.40;2.63;;;;;;;28.05;35.40;102039.69;5052533;28;20048;-69
2022/06/26 11:11:09;;;;;;;4.80;2.65;;;;;;;28.13;35.65;102045.81;5062827;28;20036;-66
2022/06/26 11:13:46;;;;;;;5.25;2.50;;;;;;;28.11;36.36;102032.38;5063841;28;20037;-68
2022/06/26 11:16:12;;;;;;;3.40;2.60;;;;;;;28.22;35.74;102042.41;5060299;28;20501;-71
2022/06/26 11:18:37;;;;;;;4.90;2.20;;;;;;;28.23;35.03;102041.34;5052836;28;20057;-72
2022/06/26 11:21:05;;;;;;;2.75;2.42;;;;;;;28.17;35.48;102036.03;5053092;28;20094;-66
2022/06/26 11:23:34;;;;;;;6.00;2.58;;;;;;;28.14;35.47;102042.00;5053593;28;20044;-70
2022/06/26 11:26:02;;;;;;;3.45;2.03;;;;;;;28.19;35.69;102039.34;5053678;28;20040;-71
2022/06/26 11:28:32;;;;;;;4.45;3.00;;;;;;;28.20;35.47;102039.09;5051366;28;20079;-68
2022/06/26 11:30:59;;;;;;;4.15;2.72;;;;;;;28.14;34.97;102036.53;5052395;28;20039;-71
2022/06/26 11:33:29;;;;;;;6.57;2.92;;;;;;;27.57;35.20;101933.44;5052292;28;20043;-66
2022/06/26 11:36:00;;;;;;;4.93;2.70;;;;;;;28.26;34.73;102040.88;5052189;28;20068;-69
2022/06/26 11:38:25;;;;;;;4.18;2.63;;;;;;;27.96;34.57;101985.56;5051975;28;20033;-70